Hlavní strana
METAR-TAF:

METAR-TAF

Letiště :

Kokkola, Finsko

zeměpisná šířka: 63-43N, zeměpisná délka: 023-09E, výška: 25 m

Aktuální stav počasí

Zpráva byla vytvořena před 42 minutami, v 03:20 UTC
Západní vítr 7 kt, proměnlivý mezi západojihozápadním a severoseverozápadním
Teplota -3°C
Vlhkost vzduchu 58%
Tlak 1020 hPa
Viditelnost 10 km a více
Žádná oblačnost pod 1500 m, nevyskytují se cumulonimby.

METAR: EFKK 050320Z AUTO 28007KT 240V340 CAVOK M03/M10 Q1020

Čas: 07:02 (04:02 UTC)


TAF: chybějící

Stav a předpovědi počasí z více než 4 000 letišť (zprávy METAR a TAF).

Červené a žluté tečky na mapě představují dostupné meteorologické stanice.

Když kurzor umístíte na tečku, zobrazí se název stanice.

Pak kliknutím zobrazíte stav a předpověď počasí.

Chcete-li změnit mapu, kliknutím na zelené tlačítko se znaménkem +mapu přiblížíte, kliknutím na zelené tlačítko se znaménkem – mapu oddálíte a kliknutím na zelené šipky přejdete na sousední mapy.


METAR-TAF: